sensor_id;sensor_type;location;lat;lon;timestamp;P1;durP1;ratioP1;P2;durP2;ratioP2
18170;SDS011;9210;48.358;10.902;2023-02-13T00:02:15;123.77;;;26.77;;
18170;SDS011;9210;48.358;10.902;2023-02-13T00:04:44;154.80;;;27.33;;
18170;SDS011;9210;48.358;10.902;2023-02-13T00:07:14;172.97;;;28.27;;
18170;SDS011;9210;48.358;10.902;2023-02-13T00:09:42;355.07;;;35.43;;
18170;SDS011;9210;48.358;10.902;2023-02-13T00:12:11;144.73;;;32.43;;
18170;SDS011;9210;48.358;10.902;2023-02-13T00:14:39;111.80;;;28.33;;
18170;SDS011;9210;48.358;10.902;2023-02-13T00:17:08;169.63;;;32.17;;
18170;SDS011;9210;48.358;10.902;2023-02-13T00:19:36;124.77;;;30.57;;
18170;SDS011;9210;48.358;10.902;2023-02-13T00:22:05;176.80;;;31.63;;
18170;SDS011;9210;48.358;10.902;2023-02-13T00:24:35;114.67;;;31.30;;
18170;SDS011;9210;48.358;10.902;2023-02-13T00:27:03;90.53;;;28.83;;
18170;SDS011;9210;48.358;10.902;2023-02-13T00:29:32;83.13;;;27.97;;
18170;SDS011;9210;48.358;10.902;2023-02-13T00:32:00;79.93;;;24.77;;
18170;SDS011;9210;48.358;10.902;2023-02-13T00:34:30;71.47;;;23.10;;
18170;SDS011;9210;48.358;10.902;2023-02-13T00:37:01;62.60;;;22.97;;
18170;SDS011;9210;48.358;10.902;2023-02-13T00:39:30;71.33;;;23.30;;
18170;SDS011;9210;48.358;10.902;2023-02-13T00:42:01;60.23;;;20.83;;
18170;SDS011;9210;48.358;10.902;2023-02-13T00:44:30;98.10;;;22.00;;
18170;SDS011;9210;48.358;10.902;2023-02-13T00:46:59;70.80;;;19.90;;
18170;SDS011;9210;48.358;10.902;2023-02-13T00:49:28;49.57;;;19.97;;
18170;SDS011;9210;48.358;10.902;2023-02-13T00:52:00;110.87;;;24.77;;
18170;SDS011;9210;48.358;10.902;2023-02-13T00:54:28;82.63;;;22.87;;
18170;SDS011;9210;48.358;10.902;2023-02-13T00:56:57;75.77;;;21.83;;
18170;SDS011;9210;48.358;10.902;2023-02-13T00:59:26;82.90;;;22.93;;
18170;SDS011;9210;48.358;10.902;2023-02-13T01:01:55;60.53;;;21.13;;
18170;SDS011;9210;48.358;10.902;2023-02-13T01:04:23;84.80;;;22.23;;
18170;SDS011;9210;48.358;10.902;2023-02-13T01:06:54;55.27;;;19.97;;
18170;SDS011;9210;48.358;10.902;2023-02-13T01:09:23;98.40;;;24.67;;
18170;SDS011;9210;48.358;10.902;2023-02-13T01:11:52;113.67;;;23.80;;
18170;SDS011;9210;48.358;10.902;2023-02-13T01:14:20;76.80;;;23.03;;
18170;SDS011;9210;48.358;10.902;2023-02-13T01:16:50;79.60;;;22.23;;
18170;SDS011;9210;48.358;10.902;2023-02-13T01:19:19;88.30;;;24.40;;
18170;SDS011;9210;48.358;10.902;2023-02-13T01:21:48;75.13;;;22.07;;
18170;SDS011;9210;48.358;10.902;2023-02-13T01:24:17;103.67;;;23.97;;
18170;SDS011;9210;48.358;10.902;2023-02-13T01:26:46;151.83;;;26.70;;
18170;SDS011;9210;48.358;10.902;2023-02-13T01:29:14;105.57;;;24.57;;
18170;SDS011;9210;48.358;10.902;2023-02-13T01:31:43;129.70;;;24.70;;
18170;SDS011;9210;48.358;10.902;2023-02-13T01:34:13;62.53;;;21.63;;
18170;SDS011;9210;48.358;10.902;2023-02-13T01:36:41;83.20;;;25.20;;
18170;SDS011;9210;48.358;10.902;2023-02-13T01:39:10;68.57;;;21.60;;
18170;SDS011;9210;48.358;10.902;2023-02-13T01:41:39;67.60;;;22.27;;
18170;SDS011;9210;48.358;10.902;2023-02-13T01:46:50;125.50;;;25.47;;
18170;SDS011;9210;48.358;10.902;2023-02-13T01:49:22;58.63;;;21.00;;
18170;SDS011;9210;48.358;10.902;2023-02-13T01:51:52;86.57;;;21.57;;
18170;SDS011;9210;48.358;10.902;2023-02-13T01:54:22;71.70;;;20.07;;
18170;SDS011;9210;48.358;10.902;2023-02-13T01:56:59;80.20;;;22.17;;
18170;SDS011;9210;48.358;10.902;2023-02-13T01:59:30;81.00;;;20.83;;
18170;SDS011;9210;48.358;10.902;2023-02-13T02:02:00;133.07;;;22.17;;
18170;SDS011;9210;48.358;10.902;2023-02-13T02:04:31;92.13;;;23.10;;
18170;SDS011;9210;48.358;10.902;2023-02-13T02:07:07;107.17;;;23.37;;
18170;SDS011;9210;48.358;10.902;2023-02-13T02:09:39;78.67;;;21.30;;
18170;SDS011;9210;48.358;10.902;2023-02-13T02:12:13;94.73;;;24.27;;
18170;SDS011;9210;48.358;10.902;2023-02-13T02:14:45;101.80;;;22.80;;
18170;SDS011;9210;48.358;10.902;2023-02-13T02:17:15;92.53;;;22.70;;
18170;SDS011;9210;48.358;10.902;2023-02-13T02:19:48;108.93;;;24.07;;
18170;SDS011;9210;48.358;10.902;2023-02-13T02:22:39;71.57;;;22.77;;
18170;SDS011;9210;48.358;10.902;2023-02-13T02:25:22;74.40;;;22.27;;
18170;SDS011;9210;48.358;10.902;2023-02-13T02:28:01;100.97;;;24.33;;
18170;SDS011;9210;48.358;10.902;2023-02-13T02:30:42;95.47;;;24.17;;
18170;SDS011;9210;48.358;10.902;2023-02-13T02:33:18;136.60;;;27.17;;
18170;SDS011;9210;48.358;10.902;2023-02-13T02:35:52;87.13;;;21.97;;
18170;SDS011;9210;48.358;10.902;2023-02-13T02:38:26;89.33;;;22.50;;
18170;SDS011;9210;48.358;10.902;2023-02-13T02:40:58;84.70;;;23.17;;
18170;SDS011;9210;48.358;10.902;2023-02-13T02:43:39;74.73;;;22.93;;
18170;SDS011;9210;48.358;10.902;2023-02-13T02:46:16;69.33;;;21.50;;
18170;SDS011;9210;48.358;10.902;2023-02-13T02:48:52;86.47;;;23.40;;
18170;SDS011;9210;48.358;10.902;2023-02-13T02:51:42;90.37;;;24.10;;
18170;SDS011;9210;48.358;10.902;2023-02-13T02:54:15;96.43;;;24.57;;
18170;SDS011;9210;48.358;10.902;2023-02-13T02:57:05;50.20;;;19.23;;
18170;SDS011;9210;48.358;10.902;2023-02-13T02:59:36;88.53;;;24.67;;
18170;SDS011;9210;48.358;10.902;2023-02-13T03:02:24;62.87;;;21.60;;
18170;SDS011;9210;48.358;10.902;2023-02-13T03:05:16;48.67;;;18.40;;
18170;SDS011;9210;48.358;10.902;2023-02-13T03:08:18;60.17;;;20.53;;
18170;SDS011;9210;48.358;10.902;2023-02-13T03:11:07;62.07;;;20.07;;
18170;SDS011;9210;48.358;10.902;2023-02-13T03:13:54;70.63;;;21.53;;
18170;SDS011;9210;48.358;10.902;2023-02-13T03:16:23;80.23;;;21.67;;
18170;SDS011;9210;48.358;10.902;2023-02-13T03:19:11;63.87;;;20.43;;
18170;SDS011;9210;48.358;10.902;2023-02-13T03:22:01;60.60;;;20.30;;
18170;SDS011;9210;48.358;10.902;2023-02-13T03:24:50;81.17;;;21.50;;
18170;SDS011;9210;48.358;10.902;2023-02-13T03:27:23;92.40;;;23.83;;
18170;SDS011;9210;48.358;10.902;2023-02-13T03:30:12;72.23;;;21.97;;
18170;SDS011;9210;48.358;10.902;2023-02-13T03:32:44;66.93;;;21.53;;
18170;SDS011;9210;48.358;10.902;2023-02-13T03:35:21;75.93;;;23.07;;
18170;SDS011;9210;48.358;10.902;2023-02-13T03:38:12;61.10;;;21.67;;
18170;SDS011;9210;48.358;10.902;2023-02-13T03:40:45;67.47;;;21.70;;
18170;SDS011;9210;48.358;10.902;2023-02-13T03:43:34;77.60;;;23.43;;
18170;SDS011;9210;48.358;10.902;2023-02-13T03:46:04;82.00;;;22.57;;
18170;SDS011;9210;48.358;10.902;2023-02-13T03:48:34;78.23;;;23.00;;
18170;SDS011;9210;48.358;10.902;2023-02-13T03:51:21;64.77;;;21.73;;
18170;SDS011;9210;48.358;10.902;2023-02-13T03:53:54;84.33;;;23.77;;
18170;SDS011;9210;48.358;10.902;2023-02-13T03:56:23;83.33;;;23.40;;
18170;SDS011;9210;48.358;10.902;2023-02-13T03:59:12;86.33;;;24.77;;
18170;SDS011;9210;48.358;10.902;2023-02-13T04:01:45;83.13;;;24.20;;
18170;SDS011;9210;48.358;10.902;2023-02-13T04:04:18;76.17;;;23.33;;
18170;SDS011;9210;48.358;10.902;2023-02-13T04:06:49;64.57;;;20.73;;
18170;SDS011;9210;48.358;10.902;2023-02-13T04:09:20;66.37;;;22.23;;
18170;SDS011;9210;48.358;10.902;2023-02-13T04:11:51;68.53;;;22.50;;
18170;SDS011;9210;48.358;10.902;2023-02-13T04:14:21;103.20;;;24.37;;
18170;SDS011;9210;48.358;10.902;2023-02-13T04:16:52;69.30;;;21.43;;
18170;SDS011;9210;48.358;10.902;2023-02-13T04:19:23;61.93;;;21.23;;
18170;SDS011;9210;48.358;10.902;2023-02-13T04:21:54;57.53;;;20.00;;
18170;SDS011;9210;48.358;10.902;2023-02-13T04:24:24;55.53;;;19.80;;
18170;SDS011;9210;48.358;10.902;2023-02-13T04:26:53;80.30;;;23.17;;
18170;SDS011;9210;48.358;10.902;2023-02-13T04:29:22;80.13;;;22.70;;
18170;SDS011;9210;48.358;10.902;2023-02-13T04:31:51;91.30;;;23.87;;
18170;SDS011;9210;48.358;10.902;2023-02-13T04:34:20;73.33;;;22.27;;
18170;SDS011;9210;48.358;10.902;2023-02-13T04:36:49;78.73;;;23.90;;
18170;SDS011;9210;48.358;10.902;2023-02-13T04:39:17;103.10;;;27.47;;
18170;SDS011;9210;48.358;10.902;2023-02-13T04:41:47;77.57;;;23.63;;
18170;SDS011;9210;48.358;10.902;2023-02-13T04:44:16;79.73;;;25.53;;
18170;SDS011;9210;48.358;10.902;2023-02-13T04:46:44;86.57;;;23.97;;
18170;SDS011;9210;48.358;10.902;2023-02-13T04:49:13;88.10;;;25.47;;
18170;SDS011;9210;48.358;10.902;2023-02-13T04:51:41;81.17;;;23.40;;
18170;SDS011;9210;48.358;10.902;2023-02-13T04:54:10;81.40;;;24.93;;
18170;SDS011;9210;48.358;10.902;2023-02-13T04:56:38;129.17;;;27.70;;
18170;SDS011;9210;48.358;10.902;2023-02-13T04:59:08;77.53;;;23.40;;
18170;SDS011;9210;48.358;10.902;2023-02-13T05:01:37;91.77;;;24.53;;
18170;SDS011;9210;48.358;10.902;2023-02-13T05:04:05;58.03;;;20.70;;
18170;SDS011;9210;48.358;10.902;2023-02-13T05:06:34;86.73;;;24.53;;
18170;SDS011;9210;48.358;10.902;2023-02-13T05:09:03;63.30;;;21.87;;
18170;SDS011;9210;48.358;10.902;2023-02-13T05:11:31;50.90;;;19.27;;
18170;SDS011;9210;48.358;10.902;2023-02-13T05:14:00;61.03;;;20.83;;
18170;SDS011;9210;48.358;10.902;2023-02-13T05:16:30;83.50;;;23.73;;
18170;SDS011;9210;48.358;10.902;2023-02-13T05:18:58;91.60;;;23.37;;
18170;SDS011;9210;48.358;10.902;2023-02-13T05:21:27;74.47;;;23.53;;
18170;SDS011;9210;48.358;10.902;2023-02-13T05:24:13;60.97;;;21.90;;
18170;SDS011;9210;48.358;10.902;2023-02-13T05:26:42;52.60;;;20.67;;
18170;SDS011;9210;48.358;10.902;2023-02-13T05:29:11;57.70;;;20.40;;
18170;SDS011;9210;48.358;10.902;2023-02-13T05:31:47;92.27;;;24.47;;
18170;SDS011;9210;48.358;10.902;2023-02-13T05:34:17;57.47;;;20.17;;
18170;SDS011;9210;48.358;10.902;2023-02-13T05:36:45;64.37;;;22.07;;
18170;SDS011;9210;48.358;10.902;2023-02-13T05:39:14;50.63;;;19.77;;
18170;SDS011;9210;48.358;10.902;2023-02-13T05:41:43;55.83;;;19.47;;
18170;SDS011;9210;48.358;10.902;2023-02-13T05:44:11;53.63;;;19.23;;
18170;SDS011;9210;48.358;10.902;2023-02-13T05:46:40;46.47;;;17.73;;
18170;SDS011;9210;48.358;10.902;2023-02-13T05:49:12;72.07;;;20.57;;
18170;SDS011;9210;48.358;10.902;2023-02-13T05:51:41;60.13;;;19.97;;
18170;SDS011;9210;48.358;10.902;2023-02-13T05:54:11;61.67;;;20.43;;
18170;SDS011;9210;48.358;10.902;2023-02-13T05:56:40;45.70;;;17.73;;
18170;SDS011;9210;48.358;10.902;2023-02-13T05:59:08;65.03;;;21.37;;
18170;SDS011;9210;48.358;10.902;2023-02-13T06:01:37;66.83;;;21.03;;
18170;SDS011;9210;48.358;10.902;2023-02-13T06:04:06;44.77;;;18.37;;
18170;SDS011;9210;48.358;10.902;2023-02-13T06:06:36;71.63;;;21.57;;
18170;SDS011;9210;48.358;10.902;2023-02-13T06:09:05;54.40;;;18.30;;
18170;SDS011;9210;48.358;10.902;2023-02-13T06:11:33;62.77;;;18.70;;
18170;SDS011;9210;48.358;10.902;2023-02-13T06:14:02;46.53;;;17.43;;
18170;SDS011;9210;48.358;10.902;2023-02-13T06:16:30;65.33;;;19.43;;
18170;SDS011;9210;48.358;10.902;2023-02-13T06:18:59;54.77;;;18.13;;
18170;SDS011;9210;48.358;10.902;2023-02-13T06:21:28;66.43;;;20.27;;
18170;SDS011;9210;48.358;10.902;2023-02-13T06:24:00;49.70;;;18.33;;
18170;SDS011;9210;48.358;10.902;2023-02-13T06:26:29;61.67;;;20.37;;
18170;SDS011;9210;48.358;10.902;2023-02-13T06:28:58;52.77;;;18.20;;
18170;SDS011;9210;48.358;10.902;2023-02-13T06:31:26;83.63;;;23.30;;
18170;SDS011;9210;48.358;10.902;2023-02-13T06:33:55;59.50;;;20.70;;
18170;SDS011;9210;48.358;10.902;2023-02-13T06:36:23;72.13;;;21.53;;
18170;SDS011;9210;48.358;10.902;2023-02-13T06:38:52;87.80;;;23.67;;
18170;SDS011;9210;48.358;10.902;2023-02-13T06:41:22;74.63;;;21.30;;
18170;SDS011;9210;48.358;10.902;2023-02-13T06:43:52;54.80;;;19.17;;
18170;SDS011;9210;48.358;10.902;2023-02-13T06:46:20;66.63;;;20.97;;
18170;SDS011;9210;48.358;10.902;2023-02-13T06:48:49;50.50;;;18.10;;
18170;SDS011;9210;48.358;10.902;2023-02-13T06:51:18;45.67;;;17.47;;
18170;SDS011;9210;48.358;10.902;2023-02-13T06:53:47;47.40;;;17.90;;
18170;SDS011;9210;48.358;10.902;2023-02-13T06:56:15;61.23;;;21.53;;
18170;SDS011;9210;48.358;10.902;2023-02-13T06:58:45;55.87;;;19.40;;
18170;SDS011;9210;48.358;10.902;2023-02-13T07:01:14;52.70;;;19.00;;
18170;SDS011;9210;48.358;10.902;2023-02-13T07:03:42;62.53;;;20.77;;
18170;SDS011;9210;48.358;10.902;2023-02-13T07:06:15;49.10;;;17.83;;
18170;SDS011;9210;48.358;10.902;2023-02-13T07:08:44;55.00;;;18.33;;
18170;SDS011;9210;48.358;10.902;2023-02-13T07:11:16;50.60;;;17.60;;
18170;SDS011;9210;48.358;10.902;2023-02-13T07:13:46;47.93;;;17.53;;
18170;SDS011;9210;48.358;10.902;2023-02-13T07:16:14;49.10;;;16.57;;
18170;SDS011;9210;48.358;10.902;2023-02-13T07:18:44;49.57;;;17.43;;
18170;SDS011;9210;48.358;10.902;2023-02-13T07:21:12;52.53;;;18.17;;
18170;SDS011;9210;48.358;10.902;2023-02-13T07:23:41;53.23;;;17.97;;
18170;SDS011;9210;48.358;10.902;2023-02-13T07:26:10;53.80;;;18.00;;
18170;SDS011;9210;48.358;10.902;2023-02-13T07:28:38;57.63;;;18.27;;
18170;SDS011;9210;48.358;10.902;2023-02-13T07:31:08;64.07;;;20.47;;
18170;SDS011;9210;48.358;10.902;2023-02-13T07:33:37;38.53;;;15.40;;
18170;SDS011;9210;48.358;10.902;2023-02-13T07:36:06;56.60;;;17.80;;
18170;SDS011;9210;48.358;10.902;2023-02-13T07:38:34;63.13;;;18.40;;
18170;SDS011;9210;48.358;10.902;2023-02-13T07:41:03;56.57;;;18.40;;
18170;SDS011;9210;48.358;10.902;2023-02-13T07:43:31;44.57;;;16.27;;
18170;SDS011;9210;48.358;10.902;2023-02-13T07:46:00;46.93;;;16.43;;
18170;SDS011;9210;48.358;10.902;2023-02-13T07:48:31;47.50;;;16.73;;
18170;SDS011;9210;48.358;10.902;2023-02-13T07:51:00;51.80;;;17.77;;
18170;SDS011;9210;48.358;10.902;2023-02-13T07:53:28;50.63;;;17.97;;
18170;SDS011;9210;48.358;10.902;2023-02-13T07:55:57;55.80;;;18.77;;
18170;SDS011;9210;48.358;10.902;2023-02-13T07:58:25;63.10;;;19.33;;
18170;SDS011;9210;48.358;10.902;2023-02-13T08:00:54;52.53;;;18.20;;
18170;SDS011;9210;48.358;10.902;2023-02-13T08:03:22;53.97;;;17.53;;
18170;SDS011;9210;48.358;10.902;2023-02-13T08:05:52;48.57;;;17.83;;
18170;SDS011;9210;48.358;10.902;2023-02-13T08:08:21;42.27;;;16.53;;
18170;SDS011;9210;48.358;10.902;2023-02-13T08:10:49;52.17;;;17.20;;
18170;SDS011;9210;48.358;10.902;2023-02-13T08:13:36;46.30;;;16.07;;
18170;SDS011;9210;48.358;10.902;2023-02-13T08:16:04;46.77;;;16.43;;
18170;SDS011;9210;48.358;10.902;2023-02-13T08:18:33;44.13;;;16.73;;
18170;SDS011;9210;48.358;10.902;2023-02-13T08:21:03;60.67;;;19.17;;
18170;SDS011;9210;48.358;10.902;2023-02-13T08:23:31;50.43;;;18.10;;
18170;SDS011;9210;48.358;10.902;2023-02-13T08:26:00;43.77;;;16.13;;
18170;SDS011;9210;48.358;10.902;2023-02-13T08:28:29;39.03;;;15.93;;
18170;SDS011;9210;48.358;10.902;2023-02-13T08:30:57;54.53;;;18.27;;
18170;SDS011;9210;48.358;10.902;2023-02-13T08:33:26;42.80;;;15.57;;
18170;SDS011;9210;48.358;10.902;2023-02-13T08:35:55;43.13;;;16.43;;
18170;SDS011;9210;48.358;10.902;2023-02-13T08:38:25;50.53;;;17.57;;
18170;SDS011;9210;48.358;10.902;2023-02-13T08:40:55;42.37;;;16.60;;
18170;SDS011;9210;48.358;10.902;2023-02-13T08:43:24;49.27;;;16.90;;
18170;SDS011;9210;48.358;10.902;2023-02-13T08:45:52;54.07;;;17.40;;
18170;SDS011;9210;48.358;10.902;2023-02-13T08:48:22;48.57;;;17.30;;
18170;SDS011;9210;48.358;10.902;2023-02-13T08:50:50;38.50;;;15.33;;
18170;SDS011;9210;48.358;10.902;2023-02-13T08:53:19;52.33;;;18.10;;
18170;SDS011;9210;48.358;10.902;2023-02-13T08:55:52;71.57;;;20.20;;
18170;SDS011;9210;48.358;10.902;2023-02-13T08:58:22;51.80;;;17.03;;
18170;SDS011;9210;48.358;10.902;2023-02-13T09:00:50;72.63;;;18.97;;
18170;SDS011;9210;48.358;10.902;2023-02-13T09:03:19;57.17;;;16.50;;
18170;SDS011;9210;48.358;10.902;2023-02-13T09:05:47;51.17;;;18.17;;
18170;SDS011;9210;48.358;10.902;2023-02-13T09:08:16;49.00;;;17.43;;
18170;SDS011;9210;48.358;10.902;2023-02-13T09:10:44;41.23;;;16.37;;
18170;SDS011;9210;48.358;10.902;2023-02-13T09:13:14;38.50;;;15.20;;
18170;SDS011;9210;48.358;10.902;2023-02-13T09:15:42;39.37;;;14.93;;
18170;SDS011;9210;48.358;10.902;2023-02-13T09:18:11;44.60;;;16.53;;
18170;SDS011;9210;48.358;10.902;2023-02-13T09:20:39;49.93;;;17.77;;
18170;SDS011;9210;48.358;10.902;2023-02-13T09:23:08;49.30;;;16.90;;
18170;SDS011;9210;48.358;10.902;2023-02-13T09:25:36;43.20;;;15.80;;
18170;SDS011;9210;48.358;10.902;2023-02-13T09:28:05;40.50;;;16.60;;
18170;SDS011;9210;48.358;10.902;2023-02-13T09:30:35;51.77;;;18.17;;
18170;SDS011;9210;48.358;10.902;2023-02-13T09:33:04;50.40;;;17.00;;
18170;SDS011;9210;48.358;10.902;2023-02-13T09:35:37;49.70;;;18.23;;
18170;SDS011;9210;48.358;10.902;2023-02-13T09:38:07;43.27;;;16.20;;
18170;SDS011;9210;48.358;10.902;2023-02-13T09:40:36;47.17;;;16.80;;
18170;SDS011;9210;48.358;10.902;2023-02-13T09:43:09;37.90;;;15.27;;
18170;SDS011;9210;48.358;10.902;2023-02-13T09:45:40;43.80;;;16.27;;
18170;SDS011;9210;48.358;10.902;2023-02-13T09:48:09;49.23;;;16.30;;
18170;SDS011;9210;48.358;10.902;2023-02-13T09:50:43;58.50;;;19.33;;
18170;SDS011;9210;48.358;10.902;2023-02-13T09:53:15;40.53;;;17.00;;
18170;SDS011;9210;48.358;10.902;2023-02-13T09:55:48;53.57;;;18.53;;
18170;SDS011;9210;48.358;10.902;2023-02-13T09:58:21;45.00;;;17.33;;
18170;SDS011;9210;48.358;10.902;2023-02-13T10:00:55;52.30;;;17.87;;
18170;SDS011;9210;48.358;10.902;2023-02-13T10:03:27;56.17;;;19.63;;
18170;SDS011;9210;48.358;10.902;2023-02-13T10:05:58;55.23;;;18.50;;
18170;SDS011;9210;48.358;10.902;2023-02-13T10:08:36;41.97;;;16.30;;
18170;SDS011;9210;48.358;10.902;2023-02-13T10:11:10;42.57;;;16.57;;
18170;SDS011;9210;48.358;10.902;2023-02-13T10:13:49;42.37;;;16.33;;
18170;SDS011;9210;48.358;10.902;2023-02-13T10:16:23;51.73;;;17.03;;
18170;SDS011;9210;48.358;10.902;2023-02-13T10:18:55;37.50;;;15.57;;
18170;SDS011;9210;48.358;10.902;2023-02-13T10:21:25;54.90;;;17.30;;
18170;SDS011;9210;48.358;10.902;2023-02-13T10:23:56;50.10;;;17.93;;
18170;SDS011;9210;48.358;10.902;2023-02-13T10:26:27;55.57;;;18.93;;
18170;SDS011;9210;48.358;10.902;2023-02-13T10:29:10;51.27;;;18.70;;
18170;SDS011;9210;48.358;10.902;2023-02-13T10:31:58;56.37;;;18.23;;
18170;SDS011;9210;48.358;10.902;2023-02-13T10:34:30;44.87;;;17.70;;
18170;SDS011;9210;48.358;10.902;2023-02-13T10:36:59;55.27;;;18.83;;
18170;SDS011;9210;48.358;10.902;2023-02-13T10:39:29;57.33;;;18.87;;
18170;SDS011;9210;48.358;10.902;2023-02-13T10:42:01;51.70;;;19.37;;
18170;SDS011;9210;48.358;10.902;2023-02-13T10:44:35;47.03;;;17.43;;
18170;SDS011;9210;48.358;10.902;2023-02-13T10:47:10;49.20;;;18.67;;
18170;SDS011;9210;48.358;10.902;2023-02-13T10:52:26;51.93;;;18.77;;
18170;SDS011;9210;48.358;10.902;2023-02-13T10:55:03;42.97;;;17.77;;
18170;SDS011;9210;48.358;10.902;2023-02-13T10:57:36;41.83;;;17.03;;
18170;SDS011;9210;48.358;10.902;2023-02-13T11:00:09;55.00;;;19.23;;
18170;SDS011;9210;48.358;10.902;2023-02-13T11:02:40;47.60;;;17.67;;
18170;SDS011;9210;48.358;10.902;2023-02-13T11:05:12;54.73;;;19.47;;
18170;SDS011;9210;48.358;10.902;2023-02-13T11:07:42;47.97;;;16.80;;
18170;SDS011;9210;48.358;10.902;2023-02-13T11:10:13;42.43;;;17.20;;
18170;SDS011;9210;48.358;10.902;2023-02-13T11:12:43;43.53;;;17.17;;
18170;SDS011;9210;48.358;10.902;2023-02-13T11:15:22;39.53;;;16.77;;
18170;SDS011;9210;48.358;10.902;2023-02-13T11:17:53;45.10;;;17.67;;
18170;SDS011;9210;48.358;10.902;2023-02-13T11:20:25;54.90;;;19.53;;
18170;SDS011;9210;48.358;10.902;2023-02-13T11:22:55;39.77;;;16.57;;
18170;SDS011;9210;48.358;10.902;2023-02-13T11:25:24;47.50;;;18.07;;
18170;SDS011;9210;48.358;10.902;2023-02-13T11:28:03;41.80;;;17.27;;
18170;SDS011;9210;48.358;10.902;2023-02-13T11:30:34;48.90;;;18.27;;
18170;SDS011;9210;48.358;10.902;2023-02-13T11:33:05;47.07;;;18.30;;
18170;SDS011;9210;48.358;10.902;2023-02-13T11:35:34;48.87;;;17.60;;
18170;SDS011;9210;48.358;10.902;2023-02-13T11:38:10;45.07;;;18.03;;
18170;SDS011;9210;48.358;10.902;2023-02-13T11:40:40;40.70;;;15.80;;
18170;SDS011;9210;48.358;10.902;2023-02-13T11:43:13;47.73;;;18.73;;
18170;SDS011;9210;48.358;10.902;2023-02-13T11:45:44;42.37;;;16.67;;
18170;SDS011;9210;48.358;10.902;2023-02-13T11:48:20;39.67;;;16.13;;
18170;SDS011;9210;48.358;10.902;2023-02-13T11:50:52;36.67;;;16.90;;
18170;SDS011;9210;48.358;10.902;2023-02-13T11:53:23;39.10;;;16.57;;
18170;SDS011;9210;48.358;10.902;2023-02-13T11:56:00;41.10;;;16.87;;
18170;SDS011;9210;48.358;10.902;2023-02-13T11:58:29;38.03;;;16.47;;
18170;SDS011;9210;48.358;10.902;2023-02-13T12:01:07;33.00;;;14.57;;
18170;SDS011;9210;48.358;10.902;2023-02-13T12:03:39;32.10;;;14.63;;
18170;SDS011;9210;48.358;10.902;2023-02-13T12:06:10;35.20;;;15.83;;
18170;SDS011;9210;48.358;10.902;2023-02-13T12:08:40;39.20;;;16.83;;
18170;SDS011;9210;48.358;10.902;2023-02-13T12:11:13;36.10;;;16.00;;
18170;SDS011;9210;48.358;10.902;2023-02-13T12:13:44;44.90;;;18.17;;
18170;SDS011;9210;48.358;10.902;2023-02-13T12:16:14;49.53;;;18.77;;
18170;SDS011;9210;48.358;10.902;2023-02-13T12:18:47;48.77;;;18.70;;
18170;SDS011;9210;48.358;10.902;2023-02-13T12:21:21;39.83;;;16.43;;
18170;SDS011;9210;48.358;10.902;2023-02-13T12:23:54;36.60;;;16.37;;
18170;SDS011;9210;48.358;10.902;2023-02-13T12:26:27;44.97;;;18.50;;
18170;SDS011;9210;48.358;10.902;2023-02-13T12:29:00;49.40;;;18.53;;
18170;SDS011;9210;48.358;10.902;2023-02-13T12:31:33;51.30;;;19.43;;
18170;SDS011;9210;48.358;10.902;2023-02-13T12:34:14;47.13;;;19.80;;
18170;SDS011;9210;48.358;10.902;2023-02-13T12:36:50;50.83;;;19.10;;
18170;SDS011;9210;48.358;10.902;2023-02-13T12:39:24;54.80;;;19.17;;
18170;SDS011;9210;48.358;10.902;2023-02-13T12:41:57;56.07;;;21.10;;
18170;SDS011;9210;48.358;10.902;2023-02-13T12:44:42;47.17;;;19.00;;
18170;SDS011;9210;48.358;10.902;2023-02-13T12:47:15;48.53;;;19.70;;
18170;SDS011;9210;48.358;10.902;2023-02-13T12:50:05;48.37;;;19.33;;
18170;SDS011;9210;48.358;10.902;2023-02-13T12:52:49;50.93;;;20.17;;
18170;SDS011;9210;48.358;10.902;2023-02-13T12:55:29;50.80;;;20.20;;
18170;SDS011;9210;48.358;10.902;2023-02-13T12:58:05;57.73;;;21.57;;
18170;SDS011;9210;48.358;10.902;2023-02-13T13:00:42;42.87;;;17.67;;
18170;SDS011;9210;48.358;10.902;2023-02-13T13:03:19;45.40;;;18.37;;
18170;SDS011;9210;48.358;10.902;2023-02-13T13:05:55;43.63;;;17.87;;
18170;SDS011;9210;48.358;10.902;2023-02-13T13:08:41;46.40;;;18.67;;
18170;SDS011;9210;48.358;10.902;2023-02-13T13:11:16;47.37;;;19.00;;
18170;SDS011;9210;48.358;10.902;2023-02-13T13:13:52;45.73;;;18.60;;
18170;SDS011;9210;48.358;10.902;2023-02-13T13:16:27;50.97;;;19.77;;
18170;SDS011;9210;48.358;10.902;2023-02-13T13:19:00;45.53;;;18.73;;
18170;SDS011;9210;48.358;10.902;2023-02-13T13:21:34;50.23;;;18.97;;
18170;SDS011;9210;48.358;10.902;2023-02-13T13:24:09;44.80;;;18.40;;
18170;SDS011;9210;48.358;10.902;2023-02-13T13:26:42;55.53;;;20.67;;
18170;SDS011;9210;48.358;10.902;2023-02-13T13:29:13;57.43;;;21.73;;
18170;SDS011;9210;48.358;10.902;2023-02-13T13:31:42;50.07;;;19.50;;
18170;SDS011;9210;48.358;10.902;2023-02-13T13:34:14;52.53;;;20.40;;
18170;SDS011;9210;48.358;10.902;2023-02-13T13:36:47;52.30;;;20.23;;
18170;SDS011;9210;48.358;10.902;2023-02-13T13:39:21;49.20;;;20.07;;
18170;SDS011;9210;48.358;10.902;2023-02-13T13:41:55;47.03;;;18.87;;
18170;SDS011;9210;48.358;10.902;2023-02-13T13:44:36;48.83;;;19.37;;
18170;SDS011;9210;48.358;10.902;2023-02-13T13:47:11;57.57;;;21.43;;
18170;SDS011;9210;48.358;10.902;2023-02-13T13:49:45;54.40;;;21.07;;
18170;SDS011;9210;48.358;10.902;2023-02-13T13:52:24;47.90;;;19.40;;
18170;SDS011;9210;48.358;10.902;2023-02-13T13:54:55;55.83;;;21.37;;
18170;SDS011;9210;48.358;10.902;2023-02-13T13:57:26;50.77;;;20.23;;
18170;SDS011;9210;48.358;10.902;2023-02-13T14:02:43;49.50;;;20.17;;
18170;SDS011;9210;48.358;10.902;2023-02-13T14:05:22;53.90;;;20.93;;
18170;SDS011;9210;48.358;10.902;2023-02-13T14:07:54;49.20;;;19.83;;
18170;SDS011;9210;48.358;10.902;2023-02-13T14:13:06;50.63;;;20.20;;
18170;SDS011;9210;48.358;10.902;2023-02-13T14:18:24;51.47;;;19.70;;
18170;SDS011;9210;48.358;10.902;2023-02-13T14:20:54;53.60;;;20.53;;
18170;SDS011;9210;48.358;10.902;2023-02-13T14:23:33;54.87;;;21.33;;
18170;SDS011;9210;48.358;10.902;2023-02-13T14:26:09;57.40;;;21.77;;
18170;SDS011;9210;48.358;10.902;2023-02-13T14:28:38;61.23;;;22.70;;
18170;SDS011;9210;48.358;10.902;2023-02-13T14:31:08;54.50;;;20.87;;
18170;SDS011;9210;48.358;10.902;2023-02-13T14:33:53;43.90;;;17.83;;
18170;SDS011;9210;48.358;10.902;2023-02-13T14:36:22;50.67;;;20.00;;
18170;SDS011;9210;48.358;10.902;2023-02-13T14:39:00;56.50;;;22.20;;
18170;SDS011;9210;48.358;10.902;2023-02-13T14:41:39;52.37;;;20.83;;
18170;SDS011;9210;48.358;10.902;2023-02-13T14:44:10;50.30;;;21.00;;
18170;SDS011;9210;48.358;10.902;2023-02-13T14:46:43;67.57;;;23.90;;
18170;SDS011;9210;48.358;10.902;2023-02-13T14:49:15;46.50;;;19.17;;
18170;SDS011;9210;48.358;10.902;2023-02-13T14:51:45;55.77;;;21.70;;
18170;SDS011;9210;48.358;10.902;2023-02-13T14:54:18;49.00;;;20.67;;
18170;SDS011;9210;48.358;10.902;2023-02-13T14:56:49;56.20;;;21.87;;
18170;SDS011;9210;48.358;10.902;2023-02-13T14:59:21;55.00;;;22.77;;
18170;SDS011;9210;48.358;10.902;2023-02-13T15:01:52;56.50;;;21.70;;
18170;SDS011;9210;48.358;10.902;2023-02-13T15:04:22;65.13;;;22.57;;